sensor_id;sensor_type;location;lat;lon;timestamp;pressure;altitude;pressure_sealevel;temperature;humidity
81641;BME280;71053;50.722;-1.944;2023-08-24T00:01:08;101191.58;;;18.87;76.32
81641;BME280;71053;50.722;-1.944;2023-08-24T00:03:33;101185.44;;;18.82;76.89
81641;BME280;71053;50.722;-1.944;2023-08-24T00:05:59;101178.63;;;18.87;76.67
81641;BME280;71053;50.722;-1.944;2023-08-24T00:08:24;101180.83;;;18.80;77.18
81641;BME280;71053;50.722;-1.944;2023-08-24T00:10:49;101172.48;;;18.94;76.73
81641;BME280;71053;50.722;-1.944;2023-08-24T00:13:14;101163.16;;;18.96;76.25
81641;BME280;71053;50.722;-1.944;2023-08-24T00:15:39;101160.11;;;19.01;75.85
81641;BME280;71053;50.722;-1.944;2023-08-24T00:18:05;101162.81;;;18.96;76.59
81641;BME280;71053;50.722;-1.944;2023-08-24T00:20:29;101165.54;;;18.86;76.95
81641;BME280;71053;50.722;-1.944;2023-08-24T00:22:55;101165.84;;;18.57;77.92
81641;BME280;71053;50.722;-1.944;2023-08-24T00:25:20;101163.06;;;18.66;78.17
81641;BME280;71053;50.722;-1.944;2023-08-24T00:27:45;101154.35;;;18.59;78.64
81641;BME280;71053;50.722;-1.944;2023-08-24T00:30:10;101147.98;;;18.71;78.33
81641;BME280;71053;50.722;-1.944;2023-08-24T00:32:36;101138.61;;;18.93;77.09
81641;BME280;71053;50.722;-1.944;2023-08-24T00:35:01;101127.51;;;19.04;76.76
81641;BME280;71053;50.722;-1.944;2023-08-24T00:37:25;101120.89;;;19.14;76.49
81641;BME280;71053;50.722;-1.944;2023-08-24T00:39:51;101110.90;;;19.23;76.14
81641;BME280;71053;50.722;-1.944;2023-08-24T00:42:17;101104.05;;;19.25;75.99
81641;BME280;71053;50.722;-1.944;2023-08-24T00:44:42;101085.19;;;19.22;76.26
81641;BME280;71053;50.722;-1.944;2023-08-24T00:47:07;101058.74;;;19.01;77.36
81641;BME280;71053;50.722;-1.944;2023-08-24T00:49:33;101044.61;;;19.15;76.55
81641;BME280;71053;50.722;-1.944;2023-08-24T00:51:58;101057.41;;;19.19;76.51
81641;BME280;71053;50.722;-1.944;2023-08-24T00:54:23;101065.95;;;19.32;76.41
81641;BME280;71053;50.722;-1.944;2023-08-24T00:56:48;101071.07;;;19.30;76.28
81641;BME280;71053;50.722;-1.944;2023-08-24T00:59:14;101048.24;;;19.43;76.02
81641;BME280;71053;50.722;-1.944;2023-08-24T01:01:41;101020.81;;;19.37;76.14
81641;BME280;71053;50.722;-1.944;2023-08-24T01:04:04;101001.91;;;19.31;76.44
81641;BME280;71053;50.722;-1.944;2023-08-24T01:06:29;100999.19;;;19.21;76.45
81641;BME280;71053;50.722;-1.944;2023-08-24T01:08:54;101002.36;;;19.28;76.81
81641;BME280;71053;50.722;-1.944;2023-08-24T01:11:25;101012.71;;;19.34;76.45
81641;BME280;71053;50.722;-1.944;2023-08-24T01:13:51;101017.42;;;19.35;76.52
81641;BME280;71053;50.722;-1.944;2023-08-24T01:16:14;101020.86;;;19.30;76.35
81641;BME280;71053;50.722;-1.944;2023-08-24T01:18:35;101031.43;;;19.40;76.14
81641;BME280;71053;50.722;-1.944;2023-08-24T01:21:00;101030.36;;;19.48;75.72
81641;BME280;71053;50.722;-1.944;2023-08-24T01:23:34;101024.17;;;19.50;75.89
81641;BME280;71053;50.722;-1.944;2023-08-24T01:25:53;101026.93;;;19.53;75.55
81641;BME280;71053;50.722;-1.944;2023-08-24T01:28:16;101030.22;;;19.52;75.33
81641;BME280;71053;50.722;-1.944;2023-08-24T01:30:40;101028.54;;;19.57;75.77
81641;BME280;71053;50.722;-1.944;2023-08-24T01:33:06;101035.71;;;19.56;75.52
81641;BME280;71053;50.722;-1.944;2023-08-24T01:35:31;101041.39;;;19.55;75.85
81641;BME280;71053;50.722;-1.944;2023-08-24T01:37:56;101050.63;;;19.52;75.50
81641;BME280;71053;50.722;-1.944;2023-08-24T01:40:26;101044.93;;;19.26;76.51
81641;BME280;71053;50.722;-1.944;2023-08-24T01:42:52;101040.59;;;19.33;76.26
81641;BME280;71053;50.722;-1.944;2023-08-24T01:45:12;101027.15;;;19.40;75.92
81641;BME280;71053;50.722;-1.944;2023-08-24T01:47:38;101011.57;;;19.45;76.85
81641;BME280;71053;50.722;-1.944;2023-08-24T01:50:03;101030.96;;;19.39;76.10
81641;BME280;71053;50.722;-1.944;2023-08-24T01:52:28;101045.72;;;19.54;75.03
81641;BME280;71053;50.722;-1.944;2023-08-24T01:54:53;101054.38;;;19.27;77.29
81641;BME280;71053;50.722;-1.944;2023-08-24T01:57:18;101048.72;;;19.46;75.76
81641;BME280;71053;50.722;-1.944;2023-08-24T01:59:43;101044.52;;;19.51;75.03
81641;BME280;71053;50.722;-1.944;2023-08-24T02:02:08;101036.05;;;19.31;75.65
81641;BME280;71053;50.722;-1.944;2023-08-24T02:04:33;101037.73;;;19.18;76.84
81641;BME280;71053;50.722;-1.944;2023-08-24T02:06:58;101030.43;;;19.19;76.91
81641;BME280;71053;50.722;-1.944;2023-08-24T02:09:23;101021.97;;;19.23;76.80
81641;BME280;71053;50.722;-1.944;2023-08-24T02:11:49;101006.43;;;19.24;76.89
81641;BME280;71053;50.722;-1.944;2023-08-24T02:14:14;101000.44;;;19.30;76.71
81641;BME280;71053;50.722;-1.944;2023-08-24T02:16:39;101017.36;;;19.17;77.27
81641;BME280;71053;50.722;-1.944;2023-08-24T02:19:04;101022.74;;;19.34;76.05
81641;BME280;71053;50.722;-1.944;2023-08-24T02:21:29;101028.27;;;19.29;76.35
81641;BME280;71053;50.722;-1.944;2023-08-24T02:23:55;101040.65;;;19.33;76.08
81641;BME280;71053;50.722;-1.944;2023-08-24T02:26:20;101040.13;;;19.42;76.09
81641;BME280;71053;50.722;-1.944;2023-08-24T02:28:46;101014.74;;;19.24;77.34
81641;BME280;71053;50.722;-1.944;2023-08-24T02:31:11;101000.36;;;19.29;76.53
81641;BME280;71053;50.722;-1.944;2023-08-24T02:33:36;100986.16;;;19.26;77.27
81641;BME280;71053;50.722;-1.944;2023-08-24T02:36:02;100979.27;;;19.30;76.55
81641;BME280;71053;50.722;-1.944;2023-08-24T02:38:27;100989.50;;;19.33;76.27
81641;BME280;71053;50.722;-1.944;2023-08-24T02:41:00;101002.15;;;19.66;74.81
81641;BME280;71053;50.722;-1.944;2023-08-24T02:43:17;101013.18;;;19.38;75.06
81641;BME280;71053;50.722;-1.944;2023-08-24T02:45:42;101038.13;;;19.17;76.46
81641;BME280;71053;50.722;-1.944;2023-08-24T02:48:07;101042.88;;;19.22;76.41
81641;BME280;71053;50.722;-1.944;2023-08-24T02:50:33;101023.51;;;19.02;77.09
81641;BME280;71053;50.722;-1.944;2023-08-24T02:52:58;101008.88;;;19.19;76.41
81641;BME280;71053;50.722;-1.944;2023-08-24T02:55:23;100999.07;;;19.15;76.91
81641;BME280;71053;50.722;-1.944;2023-08-24T02:57:48;100980.61;;;19.20;76.64
81641;BME280;71053;50.722;-1.944;2023-08-24T03:00:14;100950.63;;;19.12;77.71
81641;BME280;71053;50.722;-1.944;2023-08-24T03:02:39;100944.78;;;19.09;78.18
81641;BME280;71053;50.722;-1.944;2023-08-24T03:05:04;100960.56;;;19.09;78.54
81641;BME280;71053;50.722;-1.944;2023-08-24T03:07:29;100976.92;;;19.20;78.50
81641;BME280;71053;50.722;-1.944;2023-08-24T03:09:54;100984.18;;;19.44;76.17
81641;BME280;71053;50.722;-1.944;2023-08-24T03:12:19;100964.68;;;19.20;76.91
81641;BME280;71053;50.722;-1.944;2023-08-24T03:14:44;100954.50;;;19.28;77.58
81641;BME280;71053;50.722;-1.944;2023-08-24T03:17:10;100939.66;;;19.20;78.40
81641;BME280;71053;50.722;-1.944;2023-08-24T03:19:34;100911.07;;;19.10;78.83
81641;BME280;71053;50.722;-1.944;2023-08-24T03:22:00;100881.29;;;18.99;79.50
81641;BME280;71053;50.722;-1.944;2023-08-24T03:24:25;100870.74;;;19.01;79.25
81641;BME280;71053;50.722;-1.944;2023-08-24T03:26:50;100876.17;;;19.12;80.03
81641;BME280;71053;50.722;-1.944;2023-08-24T03:29:15;100865.06;;;19.27;79.72
81641;BME280;71053;50.722;-1.944;2023-08-24T03:31:40;100871.83;;;19.27;79.12
81641;BME280;71053;50.722;-1.944;2023-08-24T03:34:06;100894.10;;;18.99;79.21
81641;BME280;71053;50.722;-1.944;2023-08-24T03:36:31;100919.75;;;19.04;78.47
81641;BME280;71053;50.722;-1.944;2023-08-24T03:38:56;100920.10;;;19.27;77.51
81641;BME280;71053;50.722;-1.944;2023-08-24T03:41:21;100935.38;;;18.86;78.63
81641;BME280;71053;50.722;-1.944;2023-08-24T03:43:46;100937.66;;;18.90;78.96
81641;BME280;71053;50.722;-1.944;2023-08-24T03:46:11;100935.14;;;18.51;80.57
81641;BME280;71053;50.722;-1.944;2023-08-24T03:48:36;100938.10;;;18.73;79.95
81641;BME280;71053;50.722;-1.944;2023-08-24T03:51:01;100939.68;;;18.86;80.19
81641;BME280;71053;50.722;-1.944;2023-08-24T03:53:27;100945.69;;;18.74;80.60
81641;BME280;71053;50.722;-1.944;2023-08-24T03:55:52;100961.40;;;18.63;80.33
81641;BME280;71053;50.722;-1.944;2023-08-24T03:58:17;100964.36;;;18.09;82.71
81641;BME280;71053;50.722;-1.944;2023-08-24T04:00:42;100975.09;;;18.57;82.45
81641;BME280;71053;50.722;-1.944;2023-08-24T04:03:07;100987.95;;;18.16;82.40
81641;BME280;71053;50.722;-1.944;2023-08-24T04:05:32;100973.43;;;17.97;83.65
81641;BME280;71053;50.722;-1.944;2023-08-24T04:07:57;100969.76;;;18.06;83.05
81641;BME280;71053;50.722;-1.944;2023-08-24T04:10:22;100956.80;;;18.06;83.42
81641;BME280;71053;50.722;-1.944;2023-08-24T04:12:47;100944.36;;;18.18;83.01
81641;BME280;71053;50.722;-1.944;2023-08-24T04:15:12;100956.54;;;18.13;82.21
81641;BME280;71053;50.722;-1.944;2023-08-24T04:17:38;100965.14;;;18.18;81.81
81641;BME280;71053;50.722;-1.944;2023-08-24T04:20:03;100973.00;;;18.26;80.97
81641;BME280;71053;50.722;-1.944;2023-08-24T04:22:28;100966.43;;;18.39;81.27
81641;BME280;71053;50.722;-1.944;2023-08-24T04:24:55;100950.78;;;18.35;82.08
81641;BME280;71053;50.722;-1.944;2023-08-24T04:27:18;100939.58;;;18.42;82.05
81641;BME280;71053;50.722;-1.944;2023-08-24T04:29:43;100938.85;;;18.48;83.68
81641;BME280;71053;50.722;-1.944;2023-08-24T04:32:08;100932.06;;;18.53;82.85
81641;BME280;71053;50.722;-1.944;2023-08-24T04:34:33;100936.50;;;18.64;82.48
81641;BME280;71053;50.722;-1.944;2023-08-24T04:36:59;100946.79;;;18.66;81.75
81641;BME280;71053;50.722;-1.944;2023-08-24T04:39:24;100958.15;;;18.59;81.52
81641;BME280;71053;50.722;-1.944;2023-08-24T04:41:49;100961.07;;;18.49;81.02
81641;BME280;71053;50.722;-1.944;2023-08-24T04:44:14;100971.19;;;18.56;80.89
81641;BME280;71053;50.722;-1.944;2023-08-24T04:46:40;100984.82;;;18.62;81.02
81641;BME280;71053;50.722;-1.944;2023-08-24T04:49:05;100979.51;;;18.40;81.82
81641;BME280;71053;50.722;-1.944;2023-08-24T04:51:30;100979.13;;;18.35;83.57
81641;BME280;71053;50.722;-1.944;2023-08-24T04:53:56;100988.38;;;18.16;84.41
81641;BME280;71053;50.722;-1.944;2023-08-24T04:56:21;100970.89;;;18.42;83.24
81641;BME280;71053;50.722;-1.944;2023-08-24T04:58:52;100950.14;;;18.60;81.60
81641;BME280;71053;50.722;-1.944;2023-08-24T05:01:11;100937.38;;;18.46;83.17
81641;BME280;71053;50.722;-1.944;2023-08-24T05:03:36;100948.15;;;18.57;82.68
81641;BME280;71053;50.722;-1.944;2023-08-24T05:06:01;100960.43;;;18.53;83.47
81641;BME280;71053;50.722;-1.944;2023-08-24T05:08:26;100964.14;;;18.43;83.45
81641;BME280;71053;50.722;-1.944;2023-08-24T05:10:51;100961.09;;;18.68;83.44
81641;BME280;71053;50.722;-1.944;2023-08-24T05:13:16;100957.64;;;18.67;82.81
81641;BME280;71053;50.722;-1.944;2023-08-24T05:15:42;100955.37;;;18.78;82.24
81641;BME280;71053;50.722;-1.944;2023-08-24T05:18:07;100970.13;;;18.62;82.36
81641;BME280;71053;50.722;-1.944;2023-08-24T05:20:32;100980.02;;;18.56;83.01
81641;BME280;71053;50.722;-1.944;2023-08-24T05:22:57;100972.70;;;18.76;82.38
81641;BME280;71053;50.722;-1.944;2023-08-24T05:25:22;100945.23;;;18.78;82.20
81641;BME280;71053;50.722;-1.944;2023-08-24T05:27:47;100920.52;;;18.77;82.43
81641;BME280;71053;50.722;-1.944;2023-08-24T05:30:13;100916.87;;;18.70;83.04
81641;BME280;71053;50.722;-1.944;2023-08-24T05:32:38;100951.75;;;18.56;83.56
81641;BME280;71053;50.722;-1.944;2023-08-24T05:35:04;100958.22;;;18.54;83.81
81641;BME280;71053;50.722;-1.944;2023-08-24T05:37:28;100955.93;;;18.60;83.95
81641;BME280;71053;50.722;-1.944;2023-08-24T05:39:53;100945.64;;;18.73;83.20
81641;BME280;71053;50.722;-1.944;2023-08-24T05:42:19;100939.29;;;18.64;83.92
81641;BME280;71053;50.722;-1.944;2023-08-24T05:44:44;100933.58;;;18.70;83.32
81641;BME280;71053;50.722;-1.944;2023-08-24T05:47:09;100917.26;;;18.80;82.36
81641;BME280;71053;50.722;-1.944;2023-08-24T05:49:34;100922.92;;;18.71;83.20
81641;BME280;71053;50.722;-1.944;2023-08-24T05:51:59;100944.11;;;18.46;84.12
81641;BME280;71053;50.722;-1.944;2023-08-24T05:54:24;100920.76;;;18.49;84.69
81641;BME280;71053;50.722;-1.944;2023-08-24T05:56:49;100915.80;;;18.50;84.07
81641;BME280;71053;50.722;-1.944;2023-08-24T05:59:15;100927.06;;;18.46;84.61
81641;BME280;71053;50.722;-1.944;2023-08-24T06:01:40;100907.89;;;18.63;83.04
81641;BME280;71053;50.722;-1.944;2023-08-24T06:04:05;100902.70;;;18.70;83.28
81641;BME280;71053;50.722;-1.944;2023-08-24T06:06:30;100892.68;;;18.65;83.69
81641;BME280;71053;50.722;-1.944;2023-08-24T06:08:55;100895.43;;;18.62;83.34
81641;BME280;71053;50.722;-1.944;2023-08-24T06:11:21;100924.12;;;17.99;86.69
81641;BME280;71053;50.722;-1.944;2023-08-24T06:13:46;100931.46;;;18.01;87.20
81641;BME280;71053;50.722;-1.944;2023-08-24T06:16:11;100920.41;;;18.14;86.17
81641;BME280;71053;50.722;-1.944;2023-08-24T06:18:36;100906.96;;;18.27;85.84
81641;BME280;71053;50.722;-1.944;2023-08-24T06:21:01;100903.66;;;17.94;87.49
81641;BME280;71053;50.722;-1.944;2023-08-24T06:23:26;100899.65;;;18.25;86.08
81641;BME280;71053;50.722;-1.944;2023-08-24T06:25:51;100891.10;;;18.23;85.19
81641;BME280;71053;50.722;-1.944;2023-08-24T06:28:17;100894.21;;;18.38;83.70
81641;BME280;71053;50.722;-1.944;2023-08-24T06:30:43;100903.80;;;18.57;85.24
81641;BME280;71053;50.722;-1.944;2023-08-24T06:33:07;100889.70;;;18.72;82.92
81641;BME280;71053;50.722;-1.944;2023-08-24T06:35:33;100866.64;;;18.65;82.83
81641;BME280;71053;50.722;-1.944;2023-08-24T06:37:58;100850.00;;;18.59;81.01
81641;BME280;71053;50.722;-1.944;2023-08-24T06:40:23;100844.60;;;18.75;82.39
81641;BME280;71053;50.722;-1.944;2023-08-24T06:42:48;100833.72;;;18.63;82.24
81641;BME280;71053;50.722;-1.944;2023-08-24T06:45:13;100848.38;;;18.75;84.56
81641;BME280;71053;50.722;-1.944;2023-08-24T06:47:39;100842.61;;;18.83;81.31
81641;BME280;71053;50.722;-1.944;2023-08-24T06:50:04;100820.42;;;18.69;81.68
81641;BME280;71053;50.722;-1.944;2023-08-24T06:52:28;100812.36;;;18.58;81.86
81641;BME280;71053;50.722;-1.944;2023-08-24T06:54:54;100799.17;;;18.66;81.75
81641;BME280;71053;50.722;-1.944;2023-08-24T06:57:19;100793.25;;;18.69;81.05
81641;BME280;71053;50.722;-1.944;2023-08-24T06:59:44;100783.41;;;18.84;79.22
81641;BME280;71053;50.722;-1.944;2023-08-24T07:02:09;100758.63;;;18.90;81.65
81641;BME280;71053;50.722;-1.944;2023-08-24T07:04:34;100727.93;;;19.04;81.88
81641;BME280;71053;50.722;-1.944;2023-08-24T07:06:59;100725.44;;;18.88;82.87
81641;BME280;71053;50.722;-1.944;2023-08-24T07:09:25;100748.54;;;18.84;79.52
81641;BME280;71053;50.722;-1.944;2023-08-24T07:11:51;100768.56;;;19.24;78.50
81641;BME280;71053;50.722;-1.944;2023-08-24T07:14:16;100760.74;;;19.00;78.03
81641;BME280;71053;50.722;-1.944;2023-08-24T07:16:42;100743.69;;;18.91;79.54
81641;BME280;71053;50.722;-1.944;2023-08-24T07:19:08;100742.36;;;19.06;80.43
81641;BME280;71053;50.722;-1.944;2023-08-24T07:21:33;100753.31;;;18.80;81.29
81641;BME280;71053;50.722;-1.944;2023-08-24T07:23:58;100776.03;;;18.83;78.97
81641;BME280;71053;50.722;-1.944;2023-08-24T07:26:23;100780.40;;;19.02;78.16
81641;BME280;71053;50.722;-1.944;2023-08-24T07:28:48;100776.84;;;18.82;78.09
81641;BME280;71053;50.722;-1.944;2023-08-24T07:31:13;100766.81;;;19.03;79.62
81641;BME280;71053;50.722;-1.944;2023-08-24T07:33:38;100760.09;;;18.36;79.89
81641;BME280;71053;50.722;-1.944;2023-08-24T07:36:04;100752.92;;;18.79;78.23
81641;BME280;71053;50.722;-1.944;2023-08-24T07:38:28;100743.69;;;18.63;81.89
81641;BME280;71053;50.722;-1.944;2023-08-24T07:40:53;100733.85;;;18.73;81.19
81641;BME280;71053;50.722;-1.944;2023-08-24T07:43:19;100732.73;;;18.76;80.05
81641;BME280;71053;50.722;-1.944;2023-08-24T07:45:44;100740.93;;;18.93;78.49
81641;BME280;71053;50.722;-1.944;2023-08-24T07:48:09;100738.93;;;19.13;78.14
81641;BME280;71053;50.722;-1.944;2023-08-24T07:50:34;100733.57;;;19.33;79.20
81641;BME280;71053;50.722;-1.944;2023-08-24T07:52:59;100719.31;;;19.43;78.19
81641;BME280;71053;50.722;-1.944;2023-08-24T07:55:24;100702.70;;;19.56;78.13
81641;BME280;71053;50.722;-1.944;2023-08-24T07:57:49;100695.84;;;19.69;77.82
81641;BME280;71053;50.722;-1.944;2023-08-24T08:00:15;100701.71;;;19.77;75.94
81641;BME280;71053;50.722;-1.944;2023-08-24T08:02:39;100714.48;;;19.73;74.60
81641;BME280;71053;50.722;-1.944;2023-08-24T08:05:05;100730.04;;;19.94;75.26
81641;BME280;71053;50.722;-1.944;2023-08-24T08:07:30;100747.17;;;19.94;74.83
81641;BME280;71053;50.722;-1.944;2023-08-24T08:09:55;100769.77;;;19.93;73.53
81641;BME280;71053;50.722;-1.944;2023-08-24T08:12:20;100800.52;;;19.90;72.58
81641;BME280;71053;50.722;-1.944;2023-08-24T08:14:45;100841.65;;;19.47;74.15
81641;BME280;71053;50.722;-1.944;2023-08-24T08:17:10;100845.72;;;19.76;72.52
81641;BME280;71053;50.722;-1.944;2023-08-24T08:19:35;100845.46;;;19.93;72.60
81641;BME280;71053;50.722;-1.944;2023-08-24T08:22:00;100839.45;;;19.78;73.29
81641;BME280;71053;50.722;-1.944;2023-08-24T08:24:25;100839.66;;;19.91;72.20
81641;BME280;71053;50.722;-1.944;2023-08-24T08:26:50;100833.65;;;19.78;73.71
81641;BME280;71053;50.722;-1.944;2023-08-24T08:29:16;100820.81;;;19.93;73.28
81641;BME280;71053;50.722;-1.944;2023-08-24T08:31:41;100817.50;;;19.78;73.85
81641;BME280;71053;50.722;-1.944;2023-08-24T08:34:06;100819.29;;;19.64;74.32
81641;BME280;71053;50.722;-1.944;2023-08-24T08:36:31;100819.27;;;19.89;73.70
81641;BME280;71053;50.722;-1.944;2023-08-24T08:38:56;100814.10;;;19.92;73.99
81641;BME280;71053;50.722;-1.944;2023-08-24T08:41:22;100809.28;;;19.93;73.85
81641;BME280;71053;50.722;-1.944;2023-08-24T08:43:47;100827.56;;;19.92;73.11
81641;BME280;71053;50.722;-1.944;2023-08-24T08:46:12;100845.50;;;20.17;72.58
81641;BME280;71053;50.722;-1.944;2023-08-24T08:48:37;100841.12;;;20.22;71.86
81641;BME280;71053;50.722;-1.944;2023-08-24T08:51:02;100836.39;;;20.35;72.22
81641;BME280;71053;50.722;-1.944;2023-08-24T08:53:27;100836.46;;;20.30;70.93
81641;BME280;71053;50.722;-1.944;2023-08-24T08:55:54;100851.75;;;20.42;69.00
81641;BME280;71053;50.722;-1.944;2023-08-24T08:58:19;100866.21;;;20.55;67.31
81641;BME280;71053;50.722;-1.944;2023-08-24T09:00:43;100875.04;;;20.68;66.25
81641;BME280;71053;50.722;-1.944;2023-08-24T09:03:08;100893.75;;;20.45;68.48
81641;BME280;71053;50.722;-1.944;2023-08-24T09:05:35;100888.53;;;20.68;68.06
81641;BME280;71053;50.722;-1.944;2023-08-24T09:07:59;100859.43;;;20.94;68.85
81641;BME280;71053;50.722;-1.944;2023-08-24T09:10:23;100824.00;;;20.93;69.63
81641;BME280;71053;50.722;-1.944;2023-08-24T09:12:48;100813.05;;;21.08;70.38
81641;BME280;71053;50.722;-1.944;2023-08-24T09:15:14;100832.02;;;20.87;67.39
81641;BME280;71053;50.722;-1.944;2023-08-24T09:17:43;100853.08;;;20.93;65.35
81641;BME280;71053;50.722;-1.944;2023-08-24T09:20:07;100863.22;;;21.25;67.79
81641;BME280;71053;50.722;-1.944;2023-08-24T09:22:34;100845.27;;;21.30;65.50
81641;BME280;71053;50.722;-1.944;2023-08-24T09:24:54;100839.87;;;21.38;64.28
81641;BME280;71053;50.722;-1.944;2023-08-24T09:27:20;100847.86;;;21.27;64.35
81641;BME280;71053;50.722;-1.944;2023-08-24T09:29:48;100858.36;;;21.36;64.43
81641;BME280;71053;50.722;-1.944;2023-08-24T09:32:09;100868.33;;;20.66;65.51
81641;BME280;71053;50.722;-1.944;2023-08-24T09:34:36;100874.11;;;21.26;67.24
81641;BME280;71053;50.722;-1.944;2023-08-24T09:36:59;100870.76;;;21.35;69.03
81641;BME280;71053;50.722;-1.944;2023-08-24T09:39:24;100865.12;;;21.34;67.27
81641;BME280;71053;50.722;-1.944;2023-08-24T09:41:50;100865.41;;;21.40;67.50
81641;BME280;71053;50.722;-1.944;2023-08-24T09:44:14;100873.01;;;21.50;67.35
81641;BME280;71053;50.722;-1.944;2023-08-24T09:46:39;100880.94;;;21.71;67.45
81641;BME280;71053;50.722;-1.944;2023-08-24T09:49:05;100879.52;;;21.85;66.04
81641;BME280;71053;50.722;-1.944;2023-08-24T09:51:29;100878.44;;;21.62;67.70
81641;BME280;71053;50.722;-1.944;2023-08-24T09:53:57;100871.25;;;21.50;66.89
81641;BME280;71053;50.722;-1.944;2023-08-24T09:56:20;100877.67;;;21.70;66.17
81641;BME280;71053;50.722;-1.944;2023-08-24T09:58:45;100877.80;;;21.44;65.02
81641;BME280;71053;50.722;-1.944;2023-08-24T10:01:09;100886.20;;;21.75;64.60
81641;BME280;71053;50.722;-1.944;2023-08-24T10:03:34;100884.72;;;21.85;65.07
81641;BME280;71053;50.722;-1.944;2023-08-24T10:05:59;100887.12;;;21.80;65.57
81641;BME280;71053;50.722;-1.944;2023-08-24T10:08:27;100898.24;;;21.67;66.59
81641;BME280;71053;50.722;-1.944;2023-08-24T10:10:53;100892.21;;;21.60;66.29
81641;BME280;71053;50.722;-1.944;2023-08-24T10:13:18;100893.20;;;21.53;67.13
81641;BME280;71053;50.722;-1.944;2023-08-24T10:15:40;100889.80;;;21.66;67.31
81641;BME280;71053;50.722;-1.944;2023-08-24T10:18:05;100880.15;;;21.63;67.53
81641;BME280;71053;50.722;-1.944;2023-08-24T10:20:29;100884.74;;;21.58;68.67
81641;BME280;71053;50.722;-1.944;2023-08-24T10:22:56;100890.95;;;21.66;67.53
81641;BME280;71053;50.722;-1.944;2023-08-24T10:25:20;100887.89;;;21.32;69.56
81641;BME280;71053;50.722;-1.944;2023-08-24T10:27:45;100870.49;;;21.60;68.12
81641;BME280;71053;50.722;-1.944;2023-08-24T10:30:11;100871.52;;;21.20;69.37
81641;BME280;71053;50.722;-1.944;2023-08-24T10:32:34;100867.77;;;21.27;66.75
81641;BME280;71053;50.722;-1.944;2023-08-24T10:34:59;100862.02;;;20.63;65.75
81641;BME280;71053;50.722;-1.944;2023-08-24T10:37:26;100854.85;;;20.65;70.93
81641;BME280;71053;50.722;-1.944;2023-08-24T10:39:50;100855.95;;;20.26;70.89
81641;BME280;71053;50.722;-1.944;2023-08-24T10:42:14;100847.31;;;20.46;70.89
81641;BME280;71053;50.722;-1.944;2023-08-24T10:44:44;100846.60;;;20.50;72.13
81641;BME280;71053;50.722;-1.944;2023-08-24T10:47:07;100843.82;;;20.41;73.84
81641;BME280;71053;50.722;-1.944;2023-08-24T10:49:30;100854.91;;;20.48;74.33
81641;BME280;71053;50.722;-1.944;2023-08-24T10:51:55;100870.74;;;20.47;75.38
81641;BME280;71053;50.722;-1.944;2023-08-24T10:54:29;100864.32;;;20.51;75.42
81641;BME280;71053;50.722;-1.944;2023-08-24T10:56:52;100868.09;;;20.52;75.15
81641;BME280;71053;50.722;-1.944;2023-08-24T10:59:11;100866.35;;;20.66;74.82
81641;BME280;71053;50.722;-1.944;2023-08-24T11:01:38;100855.82;;;20.71;75.43
81641;BME280;71053;50.722;-1.944;2023-08-24T11:04:00;100850.90;;;20.40;75.58
81641;BME280;71053;50.722;-1.944;2023-08-24T11:06:26;100853.58;;;20.67;76.02
81641;BME280;71053;50.722;-1.944;2023-08-24T11:11:19;100850.88;;;20.41;78.07
81641;BME280;71053;50.722;-1.944;2023-08-24T11:16:06;100850.45;;;20.48;79.07
81641;BME280;71053;50.722;-1.944;2023-08-24T11:18:31;100819.92;;;20.63;79.63
81641;BME280;71053;50.722;-1.944;2023-08-24T11:21:01;100823.37;;;20.45;81.15
81641;BME280;71053;50.722;-1.944;2023-08-24T11:23:22;100828.82;;;20.05;83.61
81641;BME280;71053;50.722;-1.944;2023-08-24T11:25:47;100821.75;;;20.34;82.82
81641;BME280;71053;50.722;-1.944;2023-08-24T11:28:13;100806.22;;;20.03;83.98
81641;BME280;71053;50.722;-1.944;2023-08-24T11:30:36;100827.62;;;19.94;83.65
81641;BME280;71053;50.722;-1.944;2023-08-24T11:33:01;100826.20;;;19.97;83.22
81641;BME280;71053;50.722;-1.944;2023-08-24T11:35:26;100810.95;;;19.96;84.29
81641;BME280;71053;50.722;-1.944;2023-08-24T11:37:52;100812.82;;;19.95;85.54
81641;BME280;71053;50.722;-1.944;2023-08-24T11:40:17;100826.35;;;19.86;83.66
81641;BME280;71053;50.722;-1.944;2023-08-24T11:42:41;100831.61;;;19.85;84.38
81641;BME280;71053;50.722;-1.944;2023-08-24T11:45:11;100834.49;;;20.01;84.16
81641;BME280;71053;50.722;-1.944;2023-08-24T11:47:32;100836.45;;;20.11;84.65
81641;BME280;71053;50.722;-1.944;2023-08-24T11:49:56;100809.67;;;20.12;84.69
81641;BME280;71053;50.722;-1.944;2023-08-24T11:52:21;100828.48;;;19.83;86.93
81641;BME280;71053;50.722;-1.944;2023-08-24T11:54:46;100819.67;;;19.90;87.11
81641;BME280;71053;50.722;-1.944;2023-08-24T11:57:12;100815.12;;;19.96;87.59
81641;BME280;71053;50.722;-1.944;2023-08-24T11:59:37;100784.10;;;19.92;87.83
81641;BME280;71053;50.722;-1.944;2023-08-24T12:02:02;100780.61;;;19.84;87.50
81641;BME280;71053;50.722;-1.944;2023-08-24T12:04:27;100778.87;;;19.86;87.39
81641;BME280;71053;50.722;-1.944;2023-08-24T12:06:52;100759.34;;;19.92;87.65
81641;BME280;71053;50.722;-1.944;2023-08-24T12:09:17;100744.08;;;20.01;86.23
81641;BME280;71053;50.722;-1.944;2023-08-24T12:11:42;100720.07;;;19.94;88.49
81641;BME280;71053;50.722;-1.944;2023-08-24T12:14:15;100742.16;;;19.76;88.79
81641;BME280;71053;50.722;-1.944;2023-08-24T12:16:33;100776.30;;;19.68;89.21
81641;BME280;71053;50.722;-1.944;2023-08-24T12:18:59;100778.83;;;19.73;88.77
81641;BME280;71053;50.722;-1.944;2023-08-24T12:21:24;100780.60;;;19.79;87.70
81641;BME280;71053;50.722;-1.944;2023-08-24T12:23:55;100770.29;;;19.88;87.80
81641;BME280;71053;50.722;-1.944;2023-08-24T12:26:18;100754.85;;;19.78;87.40
81641;BME280;71053;50.722;-1.944;2023-08-24T12:28:39;100751.57;;;19.41;89.18
81641;BME280;71053;50.722;-1.944;2023-08-24T12:31:04;100751.15;;;19.35;89.80
81641;BME280;71053;50.722;-1.944;2023-08-24T12:33:31;100760.94;;;19.53;89.49